Time;durP1;ratioP1;P1;durP2;ratioP2;P2;SDS_P1;SDS_P2;PMS_P1;PMS_P2;Temp;Humidity;BMP_temperature;BMP_pressure;BME280_temperature;BME280_humidity;BME280_pressure;Samples;Min_cycle;Max_cycle;Signal;HPM_P1;HPM_P2
2021/12/20 00:01:26;;;;;;;19.60;14.80;;;;;;;;;;5022863;28;20233;-84
2021/12/20 00:03:53;;;;;;;21.17;15.63;;;;;;;;;;5022472;28;20202;-82
2021/12/20 00:06:20;;;;;;;20.20;15.23;;;;;;;;;;5022545;28;20218;-84
2021/12/20 00:08:47;;;;;;;21.40;14.63;;;;;;;;;;5023058;28;20261;-84
2021/12/20 00:11:15;;;;;;;21.33;15.20;;;;;;;;;;5022183;28;20269;-84
2021/12/20 00:13:42;;;;;;;20.27;14.47;;;;;;;;;;5016863;28;20213;-84
2021/12/20 00:16:11;;;;;;;19.87;14.63;;;;;;;;;;5016384;28;20290;-84
2021/12/20 00:18:38;;;;;;;20.27;14.40;;;;;;;;;;5016340;28;20290;-83
2021/12/20 00:21:05;;;;;;;20.20;14.97;;;;;;;;;;5015500;28;20305;-84
2021/12/20 00:23:32;;;;;;;21.47;14.83;;;;;;;;;;5015769;28;20282;-84
2021/12/20 00:26:00;;;;;;;21.63;15.47;;;;;;;;;;5015790;28;20245;-84
2021/12/20 00:28:27;;;;;;;19.97;14.97;;;;;;;;;;5016921;28;20250;-87
2021/12/20 00:30:54;;;;;;;23.13;16.67;;;;;;;;;;5029458;28;20221;-83
2021/12/20 00:33:23;;;;;;;22.23;16.07;;;;;;;;;;5025409;28;20206;-85
2021/12/20 00:35:50;;;;;;;22.83;16.10;;;;;;;;;;5023937;28;20214;-84
2021/12/20 00:41:02;;;;;;;23.40;15.83;;;;;;;;;;5022782;28;20256;-83
2021/12/20 00:43:29;;;;;;;20.90;15.37;;;;;;;;;;5013840;28;20273;-84
2021/12/20 00:45:57;;;;;;;21.60;15.57;;;;;;;;;;5014517;28;20231;-84
2021/12/20 00:48:25;;;;;;;23.47;16.13;;;;;;;;;;5024924;28;20230;-84
2021/12/20 00:50:53;;;;;;;22.50;16.13;;;;;;;;;;5013377;28;20241;-84
2021/12/20 00:53:20;;;;;;;20.73;15.10;;;;;;;;;;5014398;28;20237;-83
2021/12/20 00:55:47;;;;;;;21.97;15.63;;;;;;;;;;5014851;28;20221;-84
2021/12/20 00:58:15;;;;;;;21.07;16.03;;;;;;;;;;5014975;28;20253;-84
2021/12/20 01:00:43;;;;;;;24.13;17.40;;;;;;;;;;5024028;28;20226;-82
2021/12/20 01:03:11;;;;;;;26.93;17.60;;;;;;;;;;5025706;28;20227;-85
2021/12/20 01:05:39;;;;;;;23.40;16.13;;;;;;;;;;5023078;28;20206;-84
2021/12/20 01:08:07;;;;;;;20.93;15.53;;;;;;;;;;5015322;28;20245;-83
2021/12/20 01:10:35;;;;;;;21.70;16.03;;;;;;;;;;5018414;28;20198;-84
2021/12/20 01:13:03;;;;;;;23.27;16.17;;;;;;;;;;5018628;28;20203;-84
2021/12/20 01:15:34;;;;;;;23.17;15.43;;;;;;;;;;5018205;28;20229;-83
2021/12/20 01:18:01;;;;;;;21.50;15.97;;;;;;;;;;5016990;28;20222;-83
2021/12/20 01:20:29;;;;;;;22.17;15.43;;;;;;;;;;5018688;28;20233;-83
2021/12/20 01:22:57;;;;;;;22.33;15.30;;;;;;;;;;5017915;28;20195;-84
2021/12/20 01:25:25;;;;;;;22.60;15.80;;;;;;;;;;5018432;28;20207;-82
2021/12/20 01:27:52;;;;;;;21.13;15.17;;;;;;;;;;5018753;28;20223;-84
2021/12/20 01:30:22;;;;;;;21.60;16.43;;;;;;;;;;5021571;28;20268;-84
2021/12/20 01:32:49;;;;;;;23.40;15.30;;;;;;;;;;5019943;28;20237;-84
2021/12/20 01:35:17;;;;;;;23.27;15.97;;;;;;;;;;5021036;28;20210;-82
2021/12/20 01:37:44;;;;;;;23.37;16.90;;;;;;;;;;5020118;28;20241;-84
2021/12/20 01:40:15;;;;;;;22.27;15.90;;;;;;;;;;5019997;28;20233;-85
2021/12/20 01:42:42;;;;;;;21.53;15.33;;;;;;;;;;5018178;28;20207;-84
2021/12/20 01:45:12;;;;;;;21.27;15.23;;;;;;;;;;5019314;28;20241;-84
2021/12/20 01:47:43;;;;;;;21.93;15.33;;;;;;;;;;5019547;28;20246;-84
2021/12/20 01:50:13;;;;;;;21.60;15.47;;;;;;;;;;5013166;28;20210;-84
2021/12/20 01:52:43;;;;;;;22.97;15.83;;;;;;;;;;5018673;28;20217;-84
2021/12/20 01:55:11;;;;;;;23.20;15.77;;;;;;;;;;5021903;28;20206;-84
2021/12/20 01:57:40;;;;;;;21.33;14.57;;;;;;;;;;5017053;28;20234;-84
2021/12/20 02:00:08;;;;;;;23.73;16.67;;;;;;;;;;5017246;28;20273;-84
2021/12/20 02:02:35;;;;;;;23.67;16.50;;;;;;;;;;5015953;28;20244;-83
2021/12/20 02:05:17;;;;;;;22.10;14.97;;;;;;;;;;5018503;28;20245;-83
2021/12/20 02:07:52;;;;;;;21.17;15.00;;;;;;;;;;5017205;28;20226;-84
2021/12/20 02:10:19;;;;;;;22.33;15.70;;;;;;;;;;5017728;28;20210;-84
2021/12/20 02:12:48;;;;;;;21.67;15.57;;;;;;;;;;5016502;28;20294;-84
2021/12/20 02:15:15;;;;;;;21.73;15.13;;;;;;;;;;5017574;28;20298;-84
2021/12/20 02:17:43;;;;;;;21.00;15.17;;;;;;;;;;5017722;28;20227;-84
2021/12/20 02:20:24;;;;;;;21.83;15.07;;;;;;;;;;5018164;28;20272;-84
2021/12/20 02:22:51;;;;;;;21.90;14.83;;;;;;;;;;5016899;28;20202;-84
2021/12/20 02:25:18;;;;;;;22.97;15.90;;;;;;;;;;5016655;28;20285;-84
2021/12/20 02:27:47;;;;;;;22.53;16.57;;;;;;;;;;5015208;28;20254;-83
2021/12/20 02:30:37;;;;;;;23.07;16.20;;;;;;;;;;5017551;28;20210;-84
2021/12/20 02:38:36;;;;;;;22.73;15.77;;;;;;;;;;5017372;28;20313;-84
2021/12/20 02:41:06;;;;;;;22.93;15.80;;;;;;;;;;5017386;28;20678;-84
2021/12/20 02:43:36;;;;;;;23.50;16.13;;;;;;;;;;5012102;28;20215;-81
2021/12/20 02:46:07;;;;;;;24.17;16.47;;;;;;;;;;5013149;28;20215;-84
2021/12/20 02:48:34;;;;;;;22.33;15.70;;;;;;;;;;5018735;28;20223;-84
2021/12/20 02:51:03;;;;;;;24.57;16.27;;;;;;;;;;5018148;28;20202;-83
2021/12/20 02:53:30;;;;;;;21.63;15.37;;;;;;;;;;5019052;28;20201;-84
2021/12/20 02:55:57;;;;;;;23.10;15.20;;;;;;;;;;5018883;28;20298;-83
2021/12/20 02:58:24;;;;;;;21.87;14.53;;;;;;;;;;5018317;28;20230;-84
2021/12/20 03:00:51;;;;;;;23.97;15.87;;;;;;;;;;5017877;28;20241;-84
2021/12/20 03:03:19;;;;;;;23.07;15.07;;;;;;;;;;5018749;28;20220;-84
2021/12/20 03:05:46;;;;;;;21.90;14.83;;;;;;;;;;5013131;28;20226;-84
2021/12/20 03:08:15;;;;;;;22.90;15.93;;;;;;;;;;5014123;28;20279;-84
2021/12/20 03:10:42;;;;;;;23.70;15.87;;;;;;;;;;5011606;28;20230;-84
2021/12/20 03:13:10;;;;;;;26.80;17.10;;;;;;;;;;5013062;28;20266;-84
2021/12/20 03:15:38;;;;;;;24.20;16.03;;;;;;;;;;5014030;28;20298;-84
2021/12/20 03:18:05;;;;;;;23.87;15.93;;;;;;;;;;5015918;28;20305;-84
2021/12/20 03:20:32;;;;;;;30.60;18.27;;;;;;;;;;5015583;28;20238;-82
2021/12/20 03:22:59;;;;;;;27.00;17.57;;;;;;;;;;5017578;28;20278;-81
2021/12/20 03:25:28;;;;;;;28.57;17.60;;;;;;;;;;5017159;28;20245;-84
2021/12/20 03:27:55;;;;;;;26.43;16.93;;;;;;;;;;5017688;28;20307;-85
2021/12/20 03:30:25;;;;;;;25.73;17.00;;;;;;;;;;5016957;28;20261;-84
2021/12/20 03:32:52;;;;;;;26.13;17.17;;;;;;;;;;5016407;28;20202;-84
2021/12/20 03:35:19;;;;;;;27.17;17.07;;;;;;;;;;5016463;28;20238;-84
2021/12/20 03:37:46;;;;;;;26.13;17.33;;;;;;;;;;5017609;28;20253;-85
2021/12/20 03:40:14;;;;;;;25.17;16.83;;;;;;;;;;5016905;28;20202;-85
2021/12/20 03:42:44;;;;;;;25.43;16.80;;;;;;;;;;5016873;28;20291;-85
2021/12/20 03:45:13;;;;;;;21.70;15.33;;;;;;;;;;5017476;28;20209;-85
2021/12/20 03:47:41;;;;;;;26.47;16.50;;;;;;;;;;5017358;28;20253;-85
2021/12/20 03:50:08;;;;;;;24.93;16.57;;;;;;;;;;5027830;28;20229;-87
2021/12/20 03:52:38;;;;;;;25.90;16.70;;;;;;;;;;5013961;28;20289;-84
2021/12/20 03:55:05;;;;;;;27.00;16.90;;;;;;;;;;5014282;28;20249;-84
2021/12/20 03:57:33;;;;;;;23.97;15.63;;;;;;;;;;5022897;28;20203;-86
2021/12/20 04:00:01;;;;;;;23.83;15.47;;;;;;;;;;5015819;28;20206;-83
2021/12/20 04:02:36;;;;;;;23.97;16.13;;;;;;;;;;5013916;28;20214;-84
2021/12/20 04:05:03;;;;;;;23.93;15.43;;;;;;;;;;5008160;28;20211;-85
2021/12/20 04:07:31;;;;;;;24.50;16.23;;;;;;;;;;5014151;28;20230;-85
2021/12/20 04:09:58;;;;;;;24.47;16.33;;;;;;;;;;5014484;28;20226;-85
2021/12/20 04:12:25;;;;;;;23.60;16.13;;;;;;;;;;5007894;28;20214;-84
2021/12/20 04:14:52;;;;;;;25.67;16.33;;;;;;;;;;5012494;28;20226;-84
2021/12/20 04:17:21;;;;;;;24.37;16.27;;;;;;;;;;5015534;28;20297;-84
2021/12/20 04:19:48;;;;;;;24.23;16.30;;;;;;;;;;5019637;28;20242;-86
2021/12/20 04:22:18;;;;;;;23.83;15.70;;;;;;;;;;5032671;28;20215;-84
2021/12/20 04:24:45;;;;;;;25.23;15.83;;;;;;;;;;5033565;28;20202;-86
2021/12/20 04:27:12;;;;;;;25.77;16.93;;;;;;;;;;5028944;28;20206;-85
2021/12/20 04:29:40;;;;;;;25.47;16.67;;;;;;;;;;5021957;28;20229;-84
2021/12/20 04:32:08;;;;;;;25.03;16.00;;;;;;;;;;5020591;28;20211;-82
2021/12/20 04:34:36;;;;;;;22.50;14.77;;;;;;;;;;5029521;28;20211;-85
2021/12/20 04:37:06;;;;;;;25.00;16.60;;;;;;;;;;5030114;28;20264;-84
2021/12/20 04:39:34;;;;;;;27.80;16.87;;;;;;;;;;5021708;28;20284;-84
2021/12/20 04:42:01;;;;;;;25.80;17.27;;;;;;;;;;5019727;28;20238;-81
2021/12/20 04:44:28;;;;;;;27.30;16.70;;;;;;;;;;5020017;28;20207;-84
2021/12/20 04:46:56;;;;;;;25.77;15.77;;;;;;;;;;5018157;28;20206;-84
2021/12/20 04:49:24;;;;;;;24.83;16.27;;;;;;;;;;5018449;28;20241;-85
2021/12/20 04:51:53;;;;;;;24.40;16.53;;;;;;;;;;5018977;28;20210;-84
2021/12/20 04:54:21;;;;;;;25.03;16.90;;;;;;;;;;5018736;28;20290;-83
2021/12/20 04:56:48;;;;;;;24.93;16.37;;;;;;;;;;5018632;28;20580;-85
2021/12/20 04:59:15;;;;;;;26.03;16.73;;;;;;;;;;5019694;28;20321;-84
2021/12/20 05:01:42;;;;;;;23.43;16.13;;;;;;;;;;5019146;28;20213;-84
2021/12/20 05:04:09;;;;;;;27.07;16.97;;;;;;;;;;5020532;28;20253;-84
2021/12/20 05:06:37;;;;;;;27.17;17.13;;;;;;;;;;5020924;28;20293;-85
2021/12/20 05:09:06;;;;;;;26.73;17.47;;;;;;;;;;5019831;28;20226;-83
2021/12/20 05:11:35;;;;;;;27.47;16.80;;;;;;;;;;5017702;28;20293;-83
2021/12/20 05:14:02;;;;;;;24.23;15.47;;;;;;;;;;5019146;28;20289;-85
2021/12/20 05:16:30;;;;;;;24.20;16.20;;;;;;;;;;5018129;28;20278;-84
2021/12/20 05:18:57;;;;;;;26.03;16.43;;;;;;;;;;5018751;28;20227;-84
2021/12/20 05:21:24;;;;;;;27.20;17.30;;;;;;;;;;5019100;28;20198;-84
2021/12/20 05:23:53;;;;;;;25.10;16.20;;;;;;;;;;5018079;28;20241;-84
2021/12/20 05:26:21;;;;;;;24.40;16.07;;;;;;;;;;5017129;28;20280;-84
2021/12/20 05:28:49;;;;;;;23.77;16.50;;;;;;;;;;5016490;28;20317;-84
2021/12/20 05:31:16;;;;;;;25.93;16.50;;;;;;;;;;5065127;22;20694;-88
2021/12/20 05:33:44;;;;;;;22.90;15.63;;;;;;;;;;5034028;28;20327;-90
2021/12/20 05:36:11;;;;;;;25.37;16.00;;;;;;;;;;5031992;28;20205;-90
2021/12/20 05:38:41;;;;;;;24.90;15.37;;;;;;;;;;5032491;28;20296;-90
2021/12/20 05:41:08;;;;;;;26.50;16.87;;;;;;;;;;5027979;28;20230;-91
2021/12/20 05:43:41;;;;;;;24.10;15.83;;;;;;;;;;5012686;28;20214;-89
2021/12/20 05:46:09;;;;;;;26.00;16.53;;;;;;;;;;5011951;28;20209;-90
2021/12/20 05:48:36;;;;;;;26.03;16.67;;;;;;;;;;5012637;28;20313;-89
2021/12/20 05:51:03;;;;;;;25.23;16.17;;;;;;;;;;5011982;28;20313;-89
2021/12/20 05:53:31;;;;;;;30.23;18.33;;;;;;;;;;5013157;28;20220;-90
2021/12/20 05:56:25;;;;;;;24.10;16.03;;;;;;;;;;5012768;28;20213;-90
2021/12/20 05:58:54;;;;;;;23.80;16.10;;;;;;;;;;5013732;28;20218;-87
2021/12/20 06:01:32;;;;;;;25.50;15.83;;;;;;;;;;5015123;28;20222;-88
2021/12/20 06:03:59;;;;;;;22.57;15.37;;;;;;;;;;5026856;28;20190;-90
2021/12/20 06:06:29;;;;;;;23.10;15.37;;;;;;;;;;5038423;28;20246;-91
2021/12/20 06:08:56;;;;;;;26.33;16.83;;;;;;;;;;5038561;28;20199;-89
2021/12/20 06:11:24;;;;;;;25.57;16.60;;;;;;;;;;5034670;28;20233;-89
2021/12/20 06:13:54;;;;;;;24.10;15.73;;;;;;;;;;5020835;28;20211;-88
2021/12/20 06:16:23;;;;;;;25.00;16.47;;;;;;;;;;5016662;28;20202;-88
2021/12/20 06:18:51;;;;;;;25.27;16.53;;;;;;;;;;5016933;28;20246;-89
2021/12/20 06:21:19;;;;;;;25.00;16.37;;;;;;;;;;5015644;28;20333;-90
2021/12/20 06:23:46;;;;;;;23.77;15.83;;;;;;;;;;5016510;28;20237;-89
2021/12/20 06:29:23;;;;;;;23.80;15.43;;;;;;;;;;4956395;28;20232;-89
2021/12/20 06:35:13;;;;;;;;;;;;;;;;;;;;;
2021/12/20 06:37:42;;;;;;;25.67;15.90;;;;;;;;;;5013091;28;20202;-90
2021/12/20 06:40:13;;;;;;;25.03;15.97;;;;;;;;;;5017223;28;20234;-87
2021/12/20 06:42:41;;;;;;;24.07;15.83;;;;;;;;;;5018147;28;20222;-88
2021/12/20 06:45:09;;;;;;;23.53;15.57;;;;;;;;;;5017244;28;20229;-89
2021/12/20 06:47:38;;;;;;;24.33;15.67;;;;;;;;;;5019653;28;20215;-87
2021/12/20 06:50:08;;;;;;;25.50;16.80;;;;;;;;;;5015359;28;20203;-88
2021/12/20 06:52:36;;;;;;;21.97;15.60;;;;;;;;;;5014561;28;20321;-90
2021/12/20 06:55:09;;;;;;;22.60;15.17;;;;;;;;;;5015236;28;20225;-90
2021/12/20 06:57:40;;;;;;;22.23;14.67;;;;;;;;;;5015914;28;20210;-91
2021/12/20 07:00:21;;;;;;;;;;;;;;;;;;;;;
2021/12/20 07:02:50;;;;;;;24.63;15.30;;;;;;;;;;5014720;28;20229;-89
2021/12/20 07:05:19;;;;;;;21.73;14.83;;;;;;;;;;5015112;28;20233;-89
2021/12/20 07:07:49;;;;;;;23.43;15.33;;;;;;;;;;5013403;28;20263;-89
2021/12/20 07:10:16;;;;;;;21.87;15.87;;;;;;;;;;5010221;28;20309;-90
2021/12/20 07:12:50;;;;;;;24.80;16.03;;;;;;;;;;5012519;28;20253;-90
2021/12/20 07:15:17;;;;;;;25.53;17.37;;;;;;;;;;5009144;28;20297;-89
2021/12/20 07:17:52;;;;;;;25.23;16.73;;;;;;;;;;5015386;28;20261;-89
2021/12/20 07:20:21;;;;;;;26.50;17.20;;;;;;;;;;5028691;28;20237;-90
2021/12/20 07:22:51;;;;;;;26.60;16.93;;;;;;;;;;5034860;28;20285;-89
2021/12/20 07:25:18;;;;;;;27.33;17.53;;;;;;;;;;5030308;28;20195;-87
2021/12/20 07:27:50;;;;;;;26.83;18.17;;;;;;;;;;5026469;28;20199;-87
2021/12/20 07:30:17;;;;;;;27.40;18.00;;;;;;;;;;5033062;28;20209;-87
2021/12/20 07:32:45;;;;;;;27.47;17.80;;;;;;;;;;5025745;28;20250;-88
2021/12/20 07:35:20;;;;;;;27.03;17.97;;;;;;;;;;5018565;28;20190;-90
2021/12/20 07:37:49;;;;;;;26.37;17.00;;;;;;;;;;5018261;28;20210;-86
2021/12/20 07:40:16;;;;;;;28.10;17.60;;;;;;;;;;5015807;28;20222;-84
2021/12/20 07:42:45;;;;;;;25.87;17.27;;;;;;;;;;5022138;28;20214;-85
2021/12/20 07:48:03;;;;;;;27.93;18.07;;;;;;;;;;5021891;28;20199;-85
2021/12/20 07:53:34;;;;;;;23.50;15.53;;;;;;;;;;5018583;28;20261;-84
2021/12/20 07:56:18;;;;;;;23.20;15.80;;;;;;;;;;5015877;28;20225;-85
2021/12/20 07:58:45;;;;;;;28.03;18.40;;;;;;;;;;5018797;28;20202;-85
2021/12/20 08:01:13;;;;;;;28.30;18.93;;;;;;;;;;5016343;28;20231;-85
2021/12/20 08:03:41;;;;;;;26.67;17.87;;;;;;;;;;5017537;28;20206;-85
2021/12/20 08:06:08;;;;;;;26.97;17.23;;;;;;;;;;5021005;28;20217;-85
2021/12/20 08:08:36;;;;;;;25.43;16.90;;;;;;;;;;5022301;28;20301;-84
2021/12/20 08:11:04;;;;;;;25.43;16.37;;;;;;;;;;5024307;28;20234;-84
2021/12/20 08:13:33;;;;;;;23.97;15.70;;;;;;;;;;5022010;28;20206;-83
2021/12/20 08:16:00;;;;;;;27.00;16.43;;;;;;;;;;5017686;28;20257;-83
2021/12/20 08:18:30;;;;;;;25.80;15.77;;;;;;;;;;5017325;28;20205;-85
2021/12/20 08:20:57;;;;;;;23.20;15.03;;;;;;;;;;5014554;28;20218;-85
2021/12/20 08:23:25;;;;;;;21.80;15.47;;;;;;;;;;5016397;28;20237;-83
2021/12/20 08:25:54;;;;;;;21.83;15.30;;;;;;;;;;5018477;28;20205;-82
2021/12/20 08:28:21;;;;;;;23.00;15.90;;;;;;;;;;5017578;28;20202;-82
2021/12/20 08:30:59;;;;;;;28.87;18.63;;;;;;;;;;5018352;28;20206;-82
2021/12/20 08:33:27;;;;;;;22.97;15.60;;;;;;;;;;5017454;28;20213;-83
2021/12/20 08:35:57;;;;;;;23.47;15.80;;;;;;;;;;5017459;28;20210;-83
2021/12/20 08:38:25;;;;;;;22.70;15.73;;;;;;;;;;5016188;28;20260;-83
2021/12/20 08:40:52;;;;;;;21.90;15.83;;;;;;;;;;5016128;28;20758;-84
2021/12/20 08:43:19;;;;;;;23.40;15.23;;;;;;;;;;5017279;28;20211;-84
2021/12/20 08:45:47;;;;;;;24.63;15.90;;;;;;;;;;5018301;28;20294;-84
2021/12/20 08:48:15;;;;;;;22.97;15.50;;;;;;;;;;5017836;28;20294;-84
2021/12/20 08:50:43;;;;;;;22.23;15.90;;;;;;;;;;5016143;28;20269;-84
2021/12/20 08:53:11;;;;;;;21.77;14.83;;;;;;;;;;5017432;28;20209;-84
2021/12/20 08:55:38;;;;;;;24.03;15.57;;;;;;;;;;5019791;28;20303;-84
2021/12/20 08:58:06;;;;;;;23.47;15.33;;;;;;;;;;5017794;28;20218;-84
2021/12/20 09:00:34;;;;;;;22.77;14.50;;;;;;;;;;5018312;28;20219;-83
2021/12/20 09:03:02;;;;;;;22.10;15.30;;;;;;;;;;5014581;28;20226;-84
2021/12/20 09:05:32;;;;;;;21.83;14.33;;;;;;;;;;5019511;28;20268;-85
2021/12/20 09:08:01;;;;;;;20.90;14.57;;;;;;;;;;5021182;28;20249;-84
2021/12/20 09:10:29;;;;;;;22.23;14.97;;;;;;;;;;5032426;28;20270;-85
2021/12/20 09:12:56;;;;;;;22.80;14.93;;;;;;;;;;5035147;28;20226;-83
2021/12/20 09:15:24;;;;;;;23.77;15.93;;;;;;;;;;5023694;28;20242;-86
2021/12/20 09:17:53;;;;;;;23.27;15.50;;;;;;;;;;5018917;28;20234;-84
2021/12/20 09:20:23;;;;;;;23.43;16.37;;;;;;;;;;5017696;28;20222;-84
2021/12/20 09:22:53;;;;;;;24.80;16.53;;;;;;;;;;5017646;28;20245;-85
2021/12/20 09:25:20;;;;;;;26.40;16.30;;;;;;;;;;5017865;28;20206;-84
2021/12/20 09:27:48;;;;;;;23.17;15.67;;;;;;;;;;5017893;28;20229;-84
2021/12/20 09:30:15;;;;;;;22.13;16.20;;;;;;;;;;5020467;28;20203;-84
2021/12/20 09:32:43;;;;;;;25.40;17.43;;;;;;;;;;5019248;28;20234;-84
2021/12/20 09:35:14;;;;;;;25.63;17.00;;;;;;;;;;5020249;28;20199;-82
2021/12/20 09:37:45;;;;;;;27.03;17.20;;;;;;;;;;5021144;28;20265;-82
2021/12/20 09:40:15;;;;;;;27.60;17.50;;;;;;;;;;5021884;28;20222;-84
2021/12/20 09:42:46;;;;;;;25.27;17.90;;;;;;;;;;5018961;28;20230;-84
2021/12/20 09:45:13;;;;;;;29.67;18.00;;;;;;;;;;5020655;28;20302;-84
2021/12/20 09:47:41;;;;;;;27.20;17.90;;;;;;;;;;5020951;28;20206;-84
2021/12/20 09:50:09;;;;;;;26.37;17.60;;;;;;;;;;5017340;28;20241;-84
2021/12/20 09:52:36;;;;;;;23.80;16.93;;;;;;;;;;5020850;28;20254;-83
2021/12/20 09:55:04;;;;;;;26.70;17.30;;;;;;;;;;5021105;28;20259;-85
2021/12/20 09:57:33;;;;;;;24.93;16.73;;;;;;;;;;5020250;28;20202;-83
2021/12/20 10:00:02;;;;;;;25.50;16.43;;;;;;;;;;5020981;28;20257;-85
2021/12/20 10:02:32;;;;;;;24.07;17.27;;;;;;;;;;5025630;28;20249;-84
2021/12/20 10:04:59;;;;;;;26.97;17.67;;;;;;;;;;5023427;28;20214;-83
2021/12/20 10:07:29;;;;;;;24.00;16.07;;;;;;;;;;5018896;28;20207;-84
2021/12/20 10:10:00;;;;;;;23.67;16.20;;;;;;;;;;5018961;28;20225;-84
2021/12/20 10:12:30;;;;;;;26.70;17.27;;;;;;;;;;5018095;28;20680;-84
2021/12/20 10:15:04;;;;;;;24.07;15.73;;;;;;;;;;5018295;28;20217;-84
2021/12/20 10:17:36;;;;;;;23.90;16.00;;;;;;;;;;5018569;28;20210;-83
2021/12/20 10:20:14;;;;;;;27.17;16.13;;;;;;;;;;5018556;28;20226;-84
2021/12/20 10:22:42;;;;;;;24.60;16.17;;;;;;;;;;5017237;28;20294;-83
2021/12/20 10:25:21;;;;;;;23.40;16.23;;;;;;;;;;5017806;28;20211;-84
2021/12/20 10:27:53;;;;;;;23.73;15.90;;;;;;;;;;5016897;28;20264;-84
2021/12/20 10:30:30;;;;;;;26.60;17.30;;;;;;;;;;5016972;28;20219;-84
2021/12/20 10:32:59;;;;;;;24.10;15.50;;;;;;;;;;5014784;28;20230;-85
2021/12/20 10:35:35;;;;;;;23.63;16.13;;;;;;;;;;5018605;28;20613;-85
2021/12/20 10:38:06;;;;;;;21.57;15.07;;;;;;;;;;5018038;28;20218;-85
2021/12/20 10:40:35;;;;;;;25.53;16.23;;;;;;;;;;5016951;28;20219;-82
2021/12/20 10:43:06;;;;;;;26.23;17.17;;;;;;;;;;5017818;28;20226;-85
2021/12/20 10:45:35;;;;;;;24.20;16.30;;;;;;;;;;5017124;28;20206;-85
2021/12/20 10:48:13;;;;;;;25.60;17.60;;;;;;;;;;5018659;28;20209;-84
2021/12/20 10:50:42;;;;;;;24.57;16.17;;;;;;;;;;5013350;28;20217;-83
2021/12/20 10:53:15;;;;;;;21.93;15.63;;;;;;;;;;5021637;28;20211;-84
2021/12/20 10:55:44;;;;;;;21.03;14.67;;;;;;;;;;5020145;28;20264;-81
2021/12/20 10:58:32;;;;;;;21.60;14.37;;;;;;;;;;5021721;28;20209;-85
2021/12/20 11:01:07;;;;;;;19.27;13.50;;;;;;;;;;5021234;28;20276;-85
2021/12/20 11:03:39;;;;;;;18.10;12.57;;;;;;;;;;5021172;28;20211;-85
2021/12/20 11:09:08;;;;;;;18.97;12.70;;;;;;;;;;5015705;28;20711;-84
2021/12/20 11:11:36;;;;;;;20.33;13.40;;;;;;;;;;5017802;28;20223;-85
2021/12/20 11:14:09;;;;;;;19.07;12.87;;;;;;;;;;5018808;28;20265;-86
2021/12/20 11:16:39;;;;;;;17.20;12.43;;;;;;;;;;5019679;28;20265;-85
2021/12/20 11:19:13;;;;;;;15.70;10.33;;;;;;;;;;5021482;28;20207;-85
2021/12/20 11:21:48;;;;;;;14.87;10.57;;;;;;;;;;5018080;28;20276;-84
2021/12/20 11:24:16;;;;;;;11.70;8.93;;;;;;;;;;5021489;28;20262;-85
2021/12/20 11:26:46;;;;;;;12.57;9.37;;;;;;;;;;5021501;28;20214;-82
2021/12/20 11:29:18;;;;;;;12.17;8.67;;;;;;;;;;5018563;28;20636;-84
2021/12/20 11:31:47;;;;;;;11.37;8.60;;;;;;;;;;5013752;28;20223;-85
2021/12/20 11:34:15;;;;;;;12.47;9.37;;;;;;;;;;5020516;28;20202;-84
2021/12/20 11:36:44;;;;;;;14.40;9.87;;;;;;;;;;5016953;28;20207;-81
2021/12/20 11:39:11;;;;;;;12.83;9.10;;;;;;;;;;5050493;22;20291;-82
2021/12/20 11:41:40;;;;;;;12.27;8.93;;;;;;;;;;5036875;28;20264;-82
2021/12/20 11:44:09;;;;;;;12.10;9.40;;;;;;;;;;5033398;28;20292;-83
2021/12/20 11:46:41;;;;;;;14.07;11.00;;;;;;;;;;5027806;28;20301;-81
2021/12/20 11:49:10;;;;;;;15.50;11.63;;;;;;;;;;5037043;28;20222;-82
2021/12/20 11:51:52;;;;;;;16.33;11.77;;;;;;;;;;5038014;28;20212;-84
2021/12/20 11:54:33;;;;;;;17.63;11.77;;;;;;;;;;5034258;28;20232;-83
2021/12/20 11:57:36;;;;;;;15.37;11.53;;;;;;;;;;5037567;28;20244;-82
2021/12/20 12:00:06;;;;;;;14.27;10.97;;;;;;;;;;5034649;28;20237;-81
2021/12/20 12:02:34;;;;;;;16.40;11.63;;;;;;;;;;5029666;28;20208;-82
2021/12/20 12:05:04;;;;;;;15.73;11.20;;;;;;;;;;5043100;28;20210;-85
2021/12/20 12:07:34;;;;;;;19.67;11.73;;;;;;;;;;5050066;28;20240;-84
2021/12/20 12:10:02;;;;;;;15.27;10.83;;;;;;;;;;5043738;28;20220;-82
2021/12/20 12:12:31;;;;;;;16.73;10.70;;;;;;;;;;5049527;28;20248;-85
2021/12/20 12:15:04;;;;;;;16.33;10.87;;;;;;;;;;5054768;28;20225;-83
2021/12/20 12:17:52;;;;;;;14.90;11.07;;;;;;;;;;5048093;28;20218;-82
2021/12/20 12:20:37;;;;;;;15.37;10.83;;;;;;;;;;5034149;28;20249;-85
2021/12/20 12:23:11;;;;;;;14.03;10.40;;;;;;;;;;5036065;28;20212;-84
2021/12/20 12:25:40;;;;;;;15.37;10.00;;;;;;;;;;5034964;28;20237;-83
2021/12/20 12:28:07;;;;;;;13.20;9.37;;;;;;;;;;5041222;28;20248;-83
2021/12/20 12:30:45;;;;;;;15.87;10.00;;;;;;;;;;5032785;28;20202;-82
2021/12/20 12:33:24;;;;;;;14.70;10.70;;;;;;;;;;5037376;28;20202;-84
2021/12/20 12:35:52;;;;;;;15.33;9.43;;;;;;;;;;5044929;28;20271;-84
2021/12/20 12:38:20;;;;;;;13.20;8.93;;;;;;;;;;5050969;28;20229;-85
2021/12/20 12:40:50;;;;;;;14.13;9.17;;;;;;;;;;5045929;28;20240;-85
2021/12/20 12:43:26;;;;;;;11.00;8.73;;;;;;;;;;5038057;28;20232;-84
2021/12/20 12:46:31;;;;;;;16.53;9.23;;;;;;;;;;5035648;28;20210;-84
2021/12/20 12:49:14;;;;;;;15.97;10.00;;;;;;;;;;5033541;28;20241;-83
2021/12/20 12:51:47;;;;;;;16.07;9.77;;;;;;;;;;5022943;28;20270;-82
2021/12/20 12:54:36;;;;;;;14.70;9.57;;;;;;;;;;5035148;28;20241;-80
2021/12/20 12:57:20;;;;;;;17.10;9.33;;;;;;;;;;5036692;28;20210;-84
2021/12/20 13:00:01;;;;;;;13.93;9.10;;;;;;;;;;5032601;28;20256;-86
2021/12/20 13:02:32;;;;;;;15.23;9.87;;;;;;;;;;5032253;28;20239;-86
2021/12/20 13:05:01;;;;;;;16.30;9.83;;;;;;;;;;5043598;28;20202;-84
2021/12/20 13:07:31;;;;;;;17.10;9.50;;;;;;;;;;5037639;28;20202;-85
2021/12/20 13:10:02;;;;;;;13.50;9.27;;;;;;;;;;5038043;28;20217;-87
2021/12/20 13:12:36;;;;;;;13.17;8.57;;;;;;;;;;5035778;28;20256;-83
2021/12/20 13:15:09;;;;;;;12.87;8.70;;;;;;;;;;5042218;28;20213;-85
2021/12/20 13:17:39;;;;;;;15.23;8.60;;;;;;;;;;5038106;28;20273;-82
2021/12/20 13:20:20;;;;;;;12.63;8.23;;;;;;;;;;5051285;28;20225;-86
2021/12/20 13:23:00;;;;;;;14.53;7.93;;;;;;;;;;5050238;28;20252;-87
2021/12/20 13:25:41;;;;;;;13.83;8.17;;;;;;;;;;5044974;28;20198;-84
2021/12/20 13:28:10;;;;;;;12.63;7.83;;;;;;;;;;5047479;28;20213;-85
2021/12/20 13:30:43;;;;;;;11.60;8.27;;;;;;;;;;5049641;28;20221;-84
2021/12/20 13:33:12;;;;;;;15.77;8.87;;;;;;;;;;5054631;28;20201;-84
2021/12/20 13:35:40;;;;;;;13.47;8.43;;;;;;;;;;5053163;28;20198;-85
2021/12/20 13:38:15;;;;;;;15.00;8.40;;;;;;;;;;5043715;28;20228;-85
2021/12/20 13:40:44;;;;;;;19.50;8.70;;;;;;;;;;5043909;28;20205;-84
2021/12/20 13:43:12;;;;;;;13.27;7.97;;;;;;;;;;5045488;28;20232;-84
2021/12/20 13:45:39;;;;;;;12.57;8.43;;;;;;;;;;5042024;28;20205;-82
2021/12/20 13:48:07;;;;;;;16.23;7.83;;;;;;;;;;5041892;28;20325;-82
2021/12/20 13:50:35;;;;;;;13.33;7.93;;;;;;;;;;5044313;28;20217;-83
2021/12/20 13:53:02;;;;;;;11.97;7.47;;;;;;;;;;5046534;28;20194;-86
2021/12/20 13:55:31;;;;;;;10.97;7.27;;;;;;;;;;5052908;28;20214;-85
2021/12/20 13:57:58;;;;;;;11.67;7.37;;;;;;;;;;5053200;28;20218;-83
2021/12/20 14:00:26;;;;;;;12.13;8.00;;;;;;;;;;5053111;28;20272;-85
2021/12/20 14:02:54;;;;;;;14.93;7.67;;;;;;;;;;5048782;28;20222;-84
2021/12/20 14:05:23;;;;;;;12.60;7.63;;;;;;;;;;5046059;28;20220;-86
2021/12/20 14:07:52;;;;;;;12.50;7.23;;;;;;;;;;5043559;28;20225;-84
2021/12/20 14:10:21;;;;;;;15.40;7.27;;;;;;;;;;5043920;28;20228;-85
2021/12/20 14:12:54;;;;;;;11.03;6.57;;;;;;;;;;5041893;28;20290;-86
2021/12/20 14:15:23;;;;;;;11.07;6.73;;;;;;;;;;5038266;28;20229;-86
2021/12/20 14:17:51;;;;;;;12.40;6.07;;;;;;;;;;5035952;28;20198;-85
2021/12/20 14:20:19;;;;;;;9.87;5.47;;;;;;;;;;5036309;28;20198;-85
2021/12/20 14:22:55;;;;;;;11.13;5.23;;;;;;;;;;5038002;28;20222;-83
2021/12/20 14:25:30;;;;;;;10.27;5.33;;;;;;;;;;5042109;28;20198;-84
2021/12/20 14:28:03;;;;;;;15.73;5.63;;;;;;;;;;5038156;28;20253;-82
2021/12/20 14:30:31;;;;;;;11.87;5.57;;;;;;;;;;5042641;28;20205;-83
2021/12/20 14:32:58;;;;;;;14.80;6.20;;;;;;;;;;5034791;28;20203;-81
2021/12/20 14:35:27;;;;;;;13.13;5.27;;;;;;;;;;5042218;28;20202;-82
2021/12/20 14:37:55;;;;;;;10.03;5.17;;;;;;;;;;5039238;28;20241;-83
2021/12/20 14:40:42;;;;;;;10.83;5.33;;;;;;;;;;5034609;28;20293;-83
2021/12/20 14:43:14;;;;;;;11.10;5.73;;;;;;;;;;5038766;28;20225;-81
2021/12/20 14:45:41;;;;;;;9.83;5.77;;;;;;;;;;5036890;28;20198;-81
2021/12/20 14:48:16;;;;;;;10.13;4.90;;;;;;;;;;5039981;28;20221;-83
2021/12/20 14:50:46;;;;;;;10.37;5.60;;;;;;;;;;5039660;28;20273;-83
2021/12/20 14:53:17;;;;;;;10.30;5.30;;;;;;;;;;5038972;28;20217;-83
2021/12/20 14:55:44;;;;;;;8.83;5.20;;;;;;;;;;5038090;28;20316;-82
2021/12/20 14:58:12;;;;;;;7.77;5.20;;;;;;;;;;5039369;28;20316;-84
2021/12/20 15:00:41;;;;;;;8.30;4.90;;;;;;;;;;5041092;28;20217;-84